sensor_id;sensor_type;location;lat;lon;timestamp;temperature;humidity
37938;DHT22;23763;48.130;11.602;2022-11-25T00:00:47;3.60;99.90
37938;DHT22;23763;48.130;11.602;2022-11-25T00:03:12;3.60;99.90
37938;DHT22;23763;48.130;11.602;2022-11-25T00:05:38;3.60;99.90
37938;DHT22;23763;48.130;11.602;2022-11-25T00:08:03;3.60;99.90
37938;DHT22;23763;48.130;11.602;2022-11-25T00:10:29;3.60;99.90
37938;DHT22;23763;48.130;11.602;2022-11-25T00:12:55;3.50;99.90
37938;DHT22;23763;48.130;11.602;2022-11-25T00:15:20;3.50;99.90
37938;DHT22;23763;48.130;11.602;2022-11-25T00:17:46;3.50;99.90
37938;DHT22;23763;48.130;11.602;2022-11-25T00:20:11;3.50;99.90
37938;DHT22;23763;48.130;11.602;2022-11-25T00:22:37;3.40;99.90
37938;DHT22;23763;48.130;11.602;2022-11-25T00:25:03;3.40;99.90
37938;DHT22;23763;48.130;11.602;2022-11-25T00:27:29;3.40;99.90
37938;DHT22;23763;48.130;11.602;2022-11-25T00:29:54;3.40;99.90
37938;DHT22;23763;48.130;11.602;2022-11-25T00:32:20;3.40;99.90
37938;DHT22;23763;48.130;11.602;2022-11-25T00:34:46;3.50;99.90
37938;DHT22;23763;48.130;11.602;2022-11-25T00:37:12;3.50;99.90
37938;DHT22;23763;48.130;11.602;2022-11-25T00:39:37;3.50;99.90
37938;DHT22;23763;48.130;11.602;2022-11-25T00:42:03;3.50;99.90
37938;DHT22;23763;48.130;11.602;2022-11-25T00:44:47;3.50;99.90
37938;DHT22;23763;48.130;11.602;2022-11-25T00:47:15;3.40;99.90
37938;DHT22;23763;48.130;11.602;2022-11-25T00:49:44;3.40;99.90
37938;DHT22;23763;48.130;11.602;2022-11-25T00:52:13;3.40;99.90
37938;DHT22;23763;48.130;11.602;2022-11-25T00:54:39;3.40;99.90
37938;DHT22;23763;48.130;11.602;2022-11-25T00:57:05;3.40;99.90
37938;DHT22;23763;48.130;11.602;2022-11-25T00:59:31;3.40;99.90
37938;DHT22;23763;48.130;11.602;2022-11-25T01:01:56;3.30;99.90
37938;DHT22;23763;48.130;11.602;2022-11-25T01:04:22;3.20;99.90
37938;DHT22;23763;48.130;11.602;2022-11-25T01:06:47;3.20;99.90
37938;DHT22;23763;48.130;11.602;2022-11-25T01:09:13;3.20;99.90
37938;DHT22;23763;48.130;11.602;2022-11-25T01:11:39;3.30;99.90
37938;DHT22;23763;48.130;11.602;2022-11-25T01:14:05;3.30;99.90
37938;DHT22;23763;48.130;11.602;2022-11-25T01:16:31;3.30;99.90
37938;DHT22;23763;48.130;11.602;2022-11-25T01:18:58;3.30;99.90
37938;DHT22;23763;48.130;11.602;2022-11-25T01:21:27;3.30;99.90
37938;DHT22;23763;48.130;11.602;2022-11-25T01:23:53;3.40;99.90
37938;DHT22;23763;48.130;11.602;2022-11-25T01:26:21;3.40;99.90
37938;DHT22;23763;48.130;11.602;2022-11-25T01:28:47;3.40;99.90
37938;DHT22;23763;48.130;11.602;2022-11-25T01:31:19;3.40;99.90
37938;DHT22;23763;48.130;11.602;2022-11-25T01:33:46;3.40;99.90
37938;DHT22;23763;48.130;11.602;2022-11-25T01:36:14;3.40;99.90
37938;DHT22;23763;48.130;11.602;2022-11-25T01:38:41;3.80;99.90
37938;DHT22;23763;48.130;11.602;2022-11-25T01:41:09;3.40;99.90
37938;DHT22;23763;48.130;11.602;2022-11-25T01:43:35;3.40;99.90
37938;DHT22;23763;48.130;11.602;2022-11-25T01:48:55;3.30;99.90
37938;DHT22;23763;48.130;11.602;2022-11-25T01:54:02;3.20;99.90
37938;DHT22;23763;48.130;11.602;2022-11-25T01:56:35;3.20;99.90
37938;DHT22;23763;48.130;11.602;2022-11-25T01:59:03;3.20;99.90
37938;DHT22;23763;48.130;11.602;2022-11-25T02:01:29;3.20;99.90
37938;DHT22;23763;48.130;11.602;2022-11-25T02:03:55;3.30;99.90
37938;DHT22;23763;48.130;11.602;2022-11-25T02:06:24;3.30;99.90
37938;DHT22;23763;48.130;11.602;2022-11-25T02:08:54;3.30;99.90
37938;DHT22;23763;48.130;11.602;2022-11-25T02:11:22;3.30;99.90
37938;DHT22;23763;48.130;11.602;2022-11-25T02:13:50;3.30;99.90
37938;DHT22;23763;48.130;11.602;2022-11-25T02:16:16;3.30;99.90
37938;DHT22;23763;48.130;11.602;2022-11-25T02:18:42;3.30;99.90
37938;DHT22;23763;48.130;11.602;2022-11-25T02:21:08;3.40;99.90
37938;DHT22;23763;48.130;11.602;2022-11-25T02:23:58;3.30;99.90
37938;DHT22;23763;48.130;11.602;2022-11-25T02:26:26;3.30;99.90
37938;DHT22;23763;48.130;11.602;2022-11-25T02:28:52;3.30;99.90
37938;DHT22;23763;48.130;11.602;2022-11-25T02:31:19;3.30;99.90
37938;DHT22;23763;48.130;11.602;2022-11-25T02:33:45;3.30;99.90
37938;DHT22;23763;48.130;11.602;2022-11-25T02:36:16;3.30;99.90
37938;DHT22;23763;48.130;11.602;2022-11-25T02:41:13;3.40;99.90
37938;DHT22;23763;48.130;11.602;2022-11-25T02:43:41;3.40;99.90
37938;DHT22;23763;48.130;11.602;2022-11-25T02:46:18;3.40;99.90
37938;DHT22;23763;48.130;11.602;2022-11-25T02:48:44;3.40;99.90
37938;DHT22;23763;48.130;11.602;2022-11-25T02:51:12;3.40;99.90
37938;DHT22;23763;48.130;11.602;2022-11-25T02:53:39;3.30;99.90
37938;DHT22;23763;48.130;11.602;2022-11-25T02:56:06;3.30;99.90
37938;DHT22;23763;48.130;11.602;2022-11-25T02:58:31;3.30;99.90
37938;DHT22;23763;48.130;11.602;2022-11-25T03:00:57;3.30;99.90
37938;DHT22;23763;48.130;11.602;2022-11-25T03:03:23;3.40;99.90
37938;DHT22;23763;48.130;11.602;2022-11-25T03:05:48;3.40;99.90
37938;DHT22;23763;48.130;11.602;2022-11-25T03:08:14;3.50;99.90
37938;DHT22;23763;48.130;11.602;2022-11-25T03:10:40;3.40;99.90
37938;DHT22;23763;48.130;11.602;2022-11-25T03:13:07;3.30;99.90
37938;DHT22;23763;48.130;11.602;2022-11-25T03:15:33;3.30;99.90
37938;DHT22;23763;48.130;11.602;2022-11-25T03:18:00;3.30;99.90
37938;DHT22;23763;48.130;11.602;2022-11-25T03:20:26;3.30;99.90
37938;DHT22;23763;48.130;11.602;2022-11-25T03:22:51;3.30;99.90
37938;DHT22;23763;48.130;11.602;2022-11-25T03:25:17;3.30;99.90
37938;DHT22;23763;48.130;11.602;2022-11-25T03:27:43;3.40;99.90
37938;DHT22;23763;48.130;11.602;2022-11-25T03:30:13;3.40;99.90
37938;DHT22;23763;48.130;11.602;2022-11-25T03:32:39;3.40;99.90
37938;DHT22;23763;48.130;11.602;2022-11-25T03:35:05;3.40;99.90
37938;DHT22;23763;48.130;11.602;2022-11-25T03:37:31;3.40;99.90
37938;DHT22;23763;48.130;11.602;2022-11-25T03:39:56;3.30;99.90
37938;DHT22;23763;48.130;11.602;2022-11-25T03:42:22;3.30;99.90
37938;DHT22;23763;48.130;11.602;2022-11-25T03:44:47;3.30;99.90
37938;DHT22;23763;48.130;11.602;2022-11-25T03:47:14;3.30;99.90
37938;DHT22;23763;48.130;11.602;2022-11-25T03:49:39;3.30;99.90
37938;DHT22;23763;48.130;11.602;2022-11-25T03:52:05;3.30;99.90
37938;DHT22;23763;48.130;11.602;2022-11-25T03:54:31;3.20;99.90
37938;DHT22;23763;48.130;11.602;2022-11-25T03:56:56;3.20;99.90
37938;DHT22;23763;48.130;11.602;2022-11-25T03:59:22;3.30;99.90
37938;DHT22;23763;48.130;11.602;2022-11-25T04:01:47;3.30;99.90
37938;DHT22;23763;48.130;11.602;2022-11-25T04:04:13;3.40;99.90
37938;DHT22;23763;48.130;11.602;2022-11-25T04:06:38;3.40;99.90
37938;DHT22;23763;48.130;11.602;2022-11-25T04:09:05;3.50;99.90
37938;DHT22;23763;48.130;11.602;2022-11-25T04:11:31;3.40;99.90
37938;DHT22;23763;48.130;11.602;2022-11-25T04:14:15;3.40;99.90
37938;DHT22;23763;48.130;11.602;2022-11-25T04:16:41;3.40;99.90
37938;DHT22;23763;48.130;11.602;2022-11-25T04:19:06;3.40;99.90
37938;DHT22;23763;48.130;11.602;2022-11-25T04:21:32;3.40;99.90
37938;DHT22;23763;48.130;11.602;2022-11-25T04:23:58;3.40;99.90
37938;DHT22;23763;48.130;11.602;2022-11-25T04:26:23;3.40;99.90
37938;DHT22;23763;48.130;11.602;2022-11-25T04:28:49;3.30;99.90
37938;DHT22;23763;48.130;11.602;2022-11-25T04:31:14;3.30;99.90
37938;DHT22;23763;48.130;11.602;2022-11-25T04:33:40;3.40;99.90
37938;DHT22;23763;48.130;11.602;2022-11-25T04:36:06;3.40;99.90
37938;DHT22;23763;48.130;11.602;2022-11-25T04:38:32;3.50;99.90
37938;DHT22;23763;48.130;11.602;2022-11-25T04:40:57;3.50;99.90
37938;DHT22;23763;48.130;11.602;2022-11-25T04:43:23;3.50;99.90
37938;DHT22;23763;48.130;11.602;2022-11-25T04:45:49;3.50;99.90
37938;DHT22;23763;48.130;11.602;2022-11-25T04:48:15;3.50;99.90
37938;DHT22;23763;48.130;11.602;2022-11-25T04:50:41;3.60;99.90
37938;DHT22;23763;48.130;11.602;2022-11-25T04:53:06;3.60;99.90
37938;DHT22;23763;48.130;11.602;2022-11-25T04:55:32;3.60;99.90
37938;DHT22;23763;48.130;11.602;2022-11-25T04:57:57;3.60;99.90
37938;DHT22;23763;48.130;11.602;2022-11-25T05:00:23;3.60;99.90
37938;DHT22;23763;48.130;11.602;2022-11-25T05:02:49;3.60;99.90
37938;DHT22;23763;48.130;11.602;2022-11-25T05:05:15;3.60;99.90
37938;DHT22;23763;48.130;11.602;2022-11-25T05:07:40;3.60;99.90
37938;DHT22;23763;48.130;11.602;2022-11-25T05:10:07;3.60;99.90
37938;DHT22;23763;48.130;11.602;2022-11-25T05:12:33;3.50;99.90
37938;DHT22;23763;48.130;11.602;2022-11-25T05:14:59;3.40;99.90
37938;DHT22;23763;48.130;11.602;2022-11-25T05:17:28;3.40;99.90
37938;DHT22;23763;48.130;11.602;2022-11-25T05:19:54;3.40;99.90
37938;DHT22;23763;48.130;11.602;2022-11-25T05:22:23;3.30;99.90
37938;DHT22;23763;48.130;11.602;2022-11-25T05:24:48;3.40;99.90
37938;DHT22;23763;48.130;11.602;2022-11-25T05:27:15;3.40;99.90
37938;DHT22;23763;48.130;11.602;2022-11-25T05:29:40;3.40;99.90
37938;DHT22;23763;48.130;11.602;2022-11-25T05:32:07;3.40;99.90
37938;DHT22;23763;48.130;11.602;2022-11-25T05:34:32;3.50;99.90
37938;DHT22;23763;48.130;11.602;2022-11-25T05:36:58;3.50;99.90
37938;DHT22;23763;48.130;11.602;2022-11-25T05:39:24;3.50;99.90
37938;DHT22;23763;48.130;11.602;2022-11-25T05:41:49;3.50;99.90
37938;DHT22;23763;48.130;11.602;2022-11-25T05:44:15;3.50;99.90
37938;DHT22;23763;48.130;11.602;2022-11-25T05:46:43;3.50;99.90
37938;DHT22;23763;48.130;11.602;2022-11-25T05:49:09;3.60;99.90
37938;DHT22;23763;48.130;11.602;2022-11-25T05:51:35;3.60;99.90
37938;DHT22;23763;48.130;11.602;2022-11-25T05:54:00;3.50;99.90
37938;DHT22;23763;48.130;11.602;2022-11-25T05:56:26;3.50;99.90
37938;DHT22;23763;48.130;11.602;2022-11-25T05:58:52;3.50;99.90
37938;DHT22;23763;48.130;11.602;2022-11-25T06:01:19;3.50;99.90
37938;DHT22;23763;48.130;11.602;2022-11-25T06:03:45;3.50;99.90
37938;DHT22;23763;48.130;11.602;2022-11-25T06:06:11;3.60;99.90
37938;DHT22;23763;48.130;11.602;2022-11-25T06:08:37;3.50;99.90
37938;DHT22;23763;48.130;11.602;2022-11-25T06:11:12;3.50;99.90
37938;DHT22;23763;48.130;11.602;2022-11-25T06:13:39;3.50;99.90
37938;DHT22;23763;48.130;11.602;2022-11-25T06:16:16;3.40;99.90
37938;DHT22;23763;48.130;11.602;2022-11-25T06:18:43;3.40;99.90
37938;DHT22;23763;48.130;11.602;2022-11-25T06:21:09;3.40;99.90
37938;DHT22;23763;48.130;11.602;2022-11-25T06:23:36;3.40;99.90
37938;DHT22;23763;48.130;11.602;2022-11-25T06:26:06;3.50;99.90
37938;DHT22;23763;48.130;11.602;2022-11-25T06:28:33;3.50;99.90
37938;DHT22;23763;48.130;11.602;2022-11-25T06:31:06;3.60;99.90
37938;DHT22;23763;48.130;11.602;2022-11-25T06:33:32;3.70;99.90
37938;DHT22;23763;48.130;11.602;2022-11-25T06:35:57;3.70;99.90
37938;DHT22;23763;48.130;11.602;2022-11-25T06:38:23;3.80;99.90
37938;DHT22;23763;48.130;11.602;2022-11-25T06:40:49;3.80;99.90
37938;DHT22;23763;48.130;11.602;2022-11-25T06:43:14;3.70;99.90
37938;DHT22;23763;48.130;11.602;2022-11-25T06:45:40;3.70;99.90
37938;DHT22;23763;48.130;11.602;2022-11-25T06:48:05;3.80;99.90
37938;DHT22;23763;48.130;11.602;2022-11-25T06:50:31;3.80;99.90
37938;DHT22;23763;48.130;11.602;2022-11-25T06:52:59;3.80;99.90
37938;DHT22;23763;48.130;11.602;2022-11-25T06:55:25;3.80;99.90
37938;DHT22;23763;48.130;11.602;2022-11-25T06:57:50;3.80;99.90
37938;DHT22;23763;48.130;11.602;2022-11-25T07:00:16;3.70;99.90
37938;DHT22;23763;48.130;11.602;2022-11-25T07:02:42;3.70;99.90
37938;DHT22;23763;48.130;11.602;2022-11-25T07:05:08;3.60;99.90
37938;DHT22;23763;48.130;11.602;2022-11-25T07:07:33;3.60;99.90
37938;DHT22;23763;48.130;11.602;2022-11-25T07:09:59;3.70;99.90
37938;DHT22;23763;48.130;11.602;2022-11-25T07:12:25;3.80;99.90
37938;DHT22;23763;48.130;11.602;2022-11-25T07:14:50;3.90;99.90
37938;DHT22;23763;48.130;11.602;2022-11-25T07:17:16;3.90;99.90
37938;DHT22;23763;48.130;11.602;2022-11-25T07:19:41;4.00;99.90
37938;DHT22;23763;48.130;11.602;2022-11-25T07:22:09;4.10;99.90
37938;DHT22;23763;48.130;11.602;2022-11-25T07:24:35;4.00;99.90
37938;DHT22;23763;48.130;11.602;2022-11-25T07:27:00;4.10;99.90
37938;DHT22;23763;48.130;11.602;2022-11-25T07:29:27;4.00;99.90
37938;DHT22;23763;48.130;11.602;2022-11-25T07:31:54;4.00;99.90
37938;DHT22;23763;48.130;11.602;2022-11-25T07:34:20;4.10;99.90
37938;DHT22;23763;48.130;11.602;2022-11-25T07:36:47;4.20;99.90
37938;DHT22;23763;48.130;11.602;2022-11-25T07:39:20;4.30;99.90
37938;DHT22;23763;48.130;11.602;2022-11-25T07:41:50;4.50;99.90
37938;DHT22;23763;48.130;11.602;2022-11-25T07:44:16;4.50;99.90
37938;DHT22;23763;48.130;11.602;2022-11-25T07:46:44;4.60;99.90
37938;DHT22;23763;48.130;11.602;2022-11-25T07:49:16;4.60;99.90
37938;DHT22;23763;48.130;11.602;2022-11-25T07:51:54;4.50;99.90
37938;DHT22;23763;48.130;11.602;2022-11-25T07:54:21;4.60;99.90
37938;DHT22;23763;48.130;11.602;2022-11-25T07:56:47;4.60;99.90
37938;DHT22;23763;48.130;11.602;2022-11-25T07:59:18;4.70;99.90
37938;DHT22;23763;48.130;11.602;2022-11-25T08:01:44;4.70;99.90
37938;DHT22;23763;48.130;11.602;2022-11-25T08:04:11;4.80;99.90
37938;DHT22;23763;48.130;11.602;2022-11-25T08:06:39;4.90;99.90
37938;DHT22;23763;48.130;11.602;2022-11-25T08:09:07;4.80;99.90
37938;DHT22;23763;48.130;11.602;2022-11-25T08:11:34;4.90;99.90
37938;DHT22;23763;48.130;11.602;2022-11-25T08:14:00;4.90;99.90
37938;DHT22;23763;48.130;11.602;2022-11-25T08:16:27;5.00;99.90
37938;DHT22;23763;48.130;11.602;2022-11-25T08:18:56;5.00;99.90
37938;DHT22;23763;48.130;11.602;2022-11-25T08:21:22;5.10;99.90
37938;DHT22;23763;48.130;11.602;2022-11-25T08:23:48;5.20;99.90
37938;DHT22;23763;48.130;11.602;2022-11-25T08:26:17;5.30;99.90
37938;DHT22;23763;48.130;11.602;2022-11-25T08:28:42;5.40;99.90
37938;DHT22;23763;48.130;11.602;2022-11-25T08:31:20;5.60;99.90
37938;DHT22;23763;48.130;11.602;2022-11-25T08:33:47;5.70;99.90
37938;DHT22;23763;48.130;11.602;2022-11-25T08:36:13;5.80;99.90
37938;DHT22;23763;48.130;11.602;2022-11-25T08:38:40;5.90;99.90
37938;DHT22;23763;48.130;11.602;2022-11-25T08:41:15;5.90;99.90
37938;DHT22;23763;48.130;11.602;2022-11-25T08:43:41;5.90;99.90
37938;DHT22;23763;48.130;11.602;2022-11-25T08:46:12;5.90;99.90
37938;DHT22;23763;48.130;11.602;2022-11-25T08:48:38;5.80;99.90
37938;DHT22;23763;48.130;11.602;2022-11-25T08:51:12;5.80;99.90
37938;DHT22;23763;48.130;11.602;2022-11-25T08:53:39;5.90;99.90
37938;DHT22;23763;48.130;11.602;2022-11-25T08:56:06;5.90;99.90
37938;DHT22;23763;48.130;11.602;2022-11-25T08:58:33;6.00;99.90
37938;DHT22;23763;48.130;11.602;2022-11-25T09:00:58;6.00;99.90
37938;DHT22;23763;48.130;11.602;2022-11-25T09:03:24;6.00;99.90
37938;DHT22;23763;48.130;11.602;2022-11-25T09:05:51;5.90;99.90
37938;DHT22;23763;48.130;11.602;2022-11-25T09:08:17;5.90;99.90
37938;DHT22;23763;48.130;11.602;2022-11-25T09:10:43;5.70;99.90
37938;DHT22;23763;48.130;11.602;2022-11-25T09:13:08;5.80;99.90
37938;DHT22;23763;48.130;11.602;2022-11-25T09:15:36;5.80;99.90
37938;DHT22;23763;48.130;11.602;2022-11-25T09:18:05;6.10;99.90
37938;DHT22;23763;48.130;11.602;2022-11-25T09:20:32;6.00;99.90
37938;DHT22;23763;48.130;11.602;2022-11-25T09:22:58;6.00;99.90
37938;DHT22;23763;48.130;11.602;2022-11-25T09:25:24;6.00;99.90
37938;DHT22;23763;48.130;11.602;2022-11-25T09:27:50;6.00;99.90
37938;DHT22;23763;48.130;11.602;2022-11-25T09:30:16;6.20;99.90
37938;DHT22;23763;48.130;11.602;2022-11-25T09:32:41;6.20;99.90
37938;DHT22;23763;48.130;11.602;2022-11-25T09:35:07;6.20;99.90
37938;DHT22;23763;48.130;11.602;2022-11-25T09:37:33;6.30;99.90
37938;DHT22;23763;48.130;11.602;2022-11-25T09:39:59;6.40;99.90
37938;DHT22;23763;48.130;11.602;2022-11-25T09:42:28;6.40;99.90
37938;DHT22;23763;48.130;11.602;2022-11-25T09:45:25;6.30;99.90
37938;DHT22;23763;48.130;11.602;2022-11-25T09:48:45;6.20;99.90
37938;DHT22;23763;48.130;11.602;2022-11-25T09:51:20;6.10;99.90
37938;DHT22;23763;48.130;11.602;2022-11-25T09:53:57;6.00;99.90
37938;DHT22;23763;48.130;11.602;2022-11-25T09:56:37;6.00;99.90
37938;DHT22;23763;48.130;11.602;2022-11-25T10:01:52;6.00;99.90
37938;DHT22;23763;48.130;11.602;2022-11-25T10:04:26;6.10;99.90
37938;DHT22;23763;48.130;11.602;2022-11-25T10:06:57;6.10;99.90
37938;DHT22;23763;48.130;11.602;2022-11-25T10:09:27;6.10;99.90
37938;DHT22;23763;48.130;11.602;2022-11-25T10:11:55;6.20;99.90
37938;DHT22;23763;48.130;11.602;2022-11-25T10:14:39;6.20;99.90
37938;DHT22;23763;48.130;11.602;2022-11-25T10:17:14;6.20;99.90
37938;DHT22;23763;48.130;11.602;2022-11-25T10:20:03;6.30;99.90
37938;DHT22;23763;48.130;11.602;2022-11-25T10:22:41;6.40;99.90
37938;DHT22;23763;48.130;11.602;2022-11-25T10:28:00;6.50;99.90
37938;DHT22;23763;48.130;11.602;2022-11-25T10:30:52;6.60;99.90
37938;DHT22;23763;48.130;11.602;2022-11-25T10:33:30;6.70;99.90
37938;DHT22;23763;48.130;11.602;2022-11-25T10:41:04;6.90;99.90
37938;DHT22;23763;48.130;11.602;2022-11-25T10:43:31;7.00;99.90
37938;DHT22;23763;48.130;11.602;2022-11-25T10:46:30;7.10;99.90
37938;DHT22;23763;48.130;11.602;2022-11-25T10:49:29;7.10;99.90
37938;DHT22;23763;48.130;11.602;2022-11-25T10:52:00;7.10;99.90
37938;DHT22;23763;48.130;11.602;2022-11-25T10:54:27;7.20;99.90
37938;DHT22;23763;48.130;11.602;2022-11-25T10:57:15;7.30;99.90
37938;DHT22;23763;48.130;11.602;2022-11-25T10:59:41;7.40;99.90
37938;DHT22;23763;48.130;11.602;2022-11-25T11:02:28;7.40;99.90
37938;DHT22;23763;48.130;11.602;2022-11-25T11:07:30;7.50;99.90
37938;DHT22;23763;48.130;11.602;2022-11-25T11:12:56;7.50;99.90
37938;DHT22;23763;48.130;11.602;2022-11-25T11:17:50;7.60;99.90
37938;DHT22;23763;48.130;11.602;2022-11-25T11:20:25;7.80;99.90
37938;DHT22;23763;48.130;11.602;2022-11-25T11:23:09;8.00;99.90
37938;DHT22;23763;48.130;11.602;2022-11-25T11:25:37;8.40;99.90
37938;DHT22;23763;48.130;11.602;2022-11-25T11:28:30;8.60;99.90
37938;DHT22;23763;48.130;11.602;2022-11-25T11:31:16;8.80;99.90
37938;DHT22;23763;48.130;11.602;2022-11-25T11:34:00;8.90;99.90
37938;DHT22;23763;48.130;11.602;2022-11-25T11:36:42;9.00;99.90
37938;DHT22;23763;48.130;11.602;2022-11-25T11:41:54;9.30;99.90
37938;DHT22;23763;48.130;11.602;2022-11-25T11:47:48;9.30;99.90
37938;DHT22;23763;48.130;11.602;2022-11-25T11:50:31;9.30;99.90
37938;DHT22;23763;48.130;11.602;2022-11-25T11:53:15;9.30;99.90
37938;DHT22;23763;48.130;11.602;2022-11-25T11:59:19;9.60;99.90
37938;DHT22;23763;48.130;11.602;2022-11-25T12:04:21;10.00;99.90
37938;DHT22;23763;48.130;11.602;2022-11-25T12:07:12;10.30;99.90
37938;DHT22;23763;48.130;11.602;2022-11-25T12:09:47;10.50;99.90
37938;DHT22;23763;48.130;11.602;2022-11-25T12:12:17;10.60;99.90
37938;DHT22;23763;48.130;11.602;2022-11-25T12:14:49;10.50;99.90
37938;DHT22;23763;48.130;11.602;2022-11-25T12:17:26;10.40;99.90
37938;DHT22;23763;48.130;11.602;2022-11-25T12:19:59;10.30;99.90
37938;DHT22;23763;48.130;11.602;2022-11-25T12:22:31;10.10;99.90
37938;DHT22;23763;48.130;11.602;2022-11-25T12:25:10;10.00;99.90
37938;DHT22;23763;48.130;11.602;2022-11-25T12:27:51;9.90;99.90
37938;DHT22;23763;48.130;11.602;2022-11-25T12:30:30;9.90;99.90
37938;DHT22;23763;48.130;11.602;2022-11-25T12:33:16;9.90;99.90
37938;DHT22;23763;48.130;11.602;2022-11-25T12:35:57;9.90;99.90
37938;DHT22;23763;48.130;11.602;2022-11-25T12:38:39;9.90;99.90
37938;DHT22;23763;48.130;11.602;2022-11-25T12:43:59;10.00;99.90
37938;DHT22;23763;48.130;11.602;2022-11-25T12:46:45;10.20;99.90
37938;DHT22;23763;48.130;11.602;2022-11-25T12:49:27;10.30;99.90
37938;DHT22;23763;48.130;11.602;2022-11-25T13:17:15;10.70;99.90
37938;DHT22;23763;48.130;11.602;2022-11-25T13:19:41;10.80;99.90
37938;DHT22;23763;48.130;11.602;2022-11-25T13:22:27;11.00;99.90
37938;DHT22;23763;48.130;11.602;2022-11-25T13:24:56;11.10;99.90
37938;DHT22;23763;48.130;11.602;2022-11-25T13:29:53;11.20;99.90
37938;DHT22;23763;48.130;11.602;2022-11-25T13:32:36;11.20;99.90
37938;DHT22;23763;48.130;11.602;2022-11-25T13:37:48;11.10;99.90
37938;DHT22;23763;48.130;11.602;2022-11-25T13:42:56;11.20;99.90
37938;DHT22;23763;48.130;11.602;2022-11-25T13:45:44;11.20;99.90
37938;DHT22;23763;48.130;11.602;2022-11-25T13:48:28;11.20;99.90
37938;DHT22;23763;48.130;11.602;2022-11-25T13:53:48;11.20;99.90
37938;DHT22;23763;48.130;11.602;2022-11-25T13:56:27;11.20;99.90
37938;DHT22;23763;48.130;11.602;2022-11-25T14:01:53;11.10;99.90
37938;DHT22;23763;48.130;11.602;2022-11-25T14:10:02;11.00;99.90
37938;DHT22;23763;48.130;11.602;2022-11-25T14:18:29;10.90;99.90
37938;DHT22;23763;48.130;11.602;2022-11-25T14:21:47;10.90;99.90
37938;DHT22;23763;48.130;11.602;2022-11-25T14:24:20;10.80;99.90
37938;DHT22;23763;48.130;11.602;2022-11-25T14:26:51;10.80;99.90
37938;DHT22;23763;48.130;11.602;2022-11-25T14:31:49;10.80;99.90
37938;DHT22;23763;48.130;11.602;2022-11-25T14:34:19;10.80;99.90
37938;DHT22;23763;48.130;11.602;2022-11-25T14:37:00;10.90;99.90
37938;DHT22;23763;48.130;11.602;2022-11-25T14:39:40;10.90;99.90
37938;DHT22;23763;48.130;11.602;2022-11-25T14:42:09;10.80;99.90
37938;DHT22;23763;48.130;11.602;2022-11-25T14:44:47;10.80;99.90
37938;DHT22;23763;48.130;11.602;2022-11-25T14:47:13;10.50;99.90
37938;DHT22;23763;48.130;11.602;2022-11-25T14:49:47;10.30;99.90
37938;DHT22;23763;48.130;11.602;2022-11-25T14:52:22;10.20;99.90
37938;DHT22;23763;48.130;11.602;2022-11-25T14:54:49;10.00;99.90
37938;DHT22;23763;48.130;11.602;2022-11-25T14:57:32;9.90;99.90
37938;DHT22;23763;48.130;11.602;2022-11-25T15:00:08;9.70;99.90
37938;DHT22;23763;48.130;11.602;2022-11-25T15:02:37;9.70;99.90
37938;DHT22;23763;48.130;11.602;2022-11-25T15:07:33;9.50;99.90
37938;DHT22;23763;48.130;11.602;2022-11-25T15:09:58;9.40;99.90
37938;DHT22;23763;48.130;11.602;2022-11-25T15:12:29;9.30;99.90
37938;DHT22;23763;48.130;11.602;2022-11-25T15:14:56;9.20;99.90
37938;DHT22;23763;48.130;11.602;2022-11-25T15:17:29;9.20;99.90
37938;DHT22;23763;48.130;11.602;2022-11-25T15:19:58;9.20;99.90
37938;DHT22;23763;48.130;11.602;2022-11-25T15:22:24;9.10;99.90
37938;DHT22;23763;48.130;11.602;2022-11-25T15:24:51;9.00;99.90
37938;DHT22;23763;48.130;11.602;2022-11-25T15:27:20;8.90;99.90
37938;DHT22;23763;48.130;11.602;2022-11-25T15:29:47;8.90;99.90
37938;DHT22;23763;48.130;11.602;2022-11-25T15:32:24;8.80;99.90
37938;DHT22;23763;48.130;11.602;2022-11-25T15:34:51;8.80;99.90
37938;DHT22;23763;48.130;11.602;2022-11-25T15:37:17;8.80;99.90
37938;DHT22;23763;48.130;11.602;2022-11-25T15:39:43;8.70;99.90
37938;DHT22;23763;48.130;11.602;2022-11-25T15:42:25;8.70;99.90
37938;DHT22;23763;48.130;11.602;2022-11-25T15:44:59;8.70;99.90
37938;DHT22;23763;48.130;11.602;2022-11-25T15:47:28;8.60;99.90
37938;DHT22;23763;48.130;11.602;2022-11-25T15:50:02;8.60;99.90
37938;DHT22;23763;48.130;11.602;2022-11-25T15:52:39;8.60;99.90
37938;DHT22;23763;48.130;11.602;2022-11-25T15:55:37;8.50;99.90
37938;DHT22;23763;48.130;11.602;2022-11-25T15:58:20;8.50;99.90
37938;DHT22;23763;48.130;11.602;2022-11-25T16:03:32;8.50;99.90
37938;DHT22;23763;48.130;11.602;2022-11-25T16:05:59;8.50;99.90
37938;DHT22;23763;48.130;11.602;2022-11-25T16:08:31;8.40;99.90
37938;DHT22;23763;48.130;11.602;2022-11-25T16:10:59;8.30;99.90
37938;DHT22;23763;48.130;11.602;2022-11-25T16:13:35;8.40;99.90
37938;DHT22;23763;48.130;11.602;2022-11-25T16:16:25;8.30;99.90
37938;DHT22;23763;48.130;11.602;2022-11-25T16:21:28;8.40;99.90
37938;DHT22;23763;48.130;11.602;2022-11-25T16:26:38;8.20;99.90
37938;DHT22;23763;48.130;11.602;2022-11-25T16:29:14;8.20;99.90
37938;DHT22;23763;48.130;11.602;2022-11-25T16:31:40;8.10;99.90
37938;DHT22;23763;48.130;11.602;2022-11-25T16:34:18;8.10;99.90
37938;DHT22;23763;48.130;11.602;2022-11-25T16:36:44;8.10;99.90
37938;DHT22;23763;48.130;11.602;2022-11-25T16:39:10;8.20;99.90
37938;DHT22;23763;48.130;11.602;2022-11-25T16:41:36;8.10;99.90
37938;DHT22;23763;48.130;11.602;2022-11-25T16:44:15;8.00;99.90
37938;DHT22;23763;48.130;11.602;2022-11-25T16:46:45;8.00;99.90
37938;DHT22;23763;48.130;11.602;2022-11-25T16:49:13;8.10;99.90
37938;DHT22;23763;48.130;11.602;2022-11-25T16:51:39;8.00;99.90
37938;DHT22;23763;48.130;11.602;2022-11-25T16:54:04;8.00;99.90
37938;DHT22;23763;48.130;11.602;2022-11-25T16:56:30;8.00;99.90
37938;DHT22;23763;48.130;11.602;2022-11-25T16:58:56;8.00;99.90
37938;DHT22;23763;48.130;11.602;2022-11-25T17:01:25;8.00;99.90
37938;DHT22;23763;48.130;11.602;2022-11-25T17:03:51;8.00;99.90
37938;DHT22;23763;48.130;11.602;2022-11-25T17:06:23;8.00;99.90
37938;DHT22;23763;48.130;11.602;2022-11-25T17:08:49;8.10;99.90
37938;DHT22;23763;48.130;11.602;2022-11-25T17:11:25;8.00;99.90
37938;DHT22;23763;48.130;11.602;2022-11-25T17:13:57;8.00;99.90
37938;DHT22;23763;48.130;11.602;2022-11-25T17:16:25;8.00;99.90
37938;DHT22;23763;48.130;11.602;2022-11-25T17:18:54;8.00;99.90
37938;DHT22;23763;48.130;11.602;2022-11-25T17:21:20;7.90;99.90
37938;DHT22;23763;48.130;11.602;2022-11-25T17:23:51;7.90;99.90
37938;DHT22;23763;48.130;11.602;2022-11-25T17:26:20;7.90;99.90
37938;DHT22;23763;48.130;11.602;2022-11-25T17:28:57;7.90;99.90
37938;DHT22;23763;48.130;11.602;2022-11-25T17:31:26;7.90;99.90